»·PEaware :: N786DE KGEG-KBFI

N786DE :: KGEG-KBFI

FLIGHT INFORMATION

Flight Status: Arrived
Operator: Privately registered:
United States
More flights under this callsign
Pilot: Dan E. (52)
Aircraft: Unknown
(L049)
More flights by this aircraft type
Origin: KGEG Spokane Intl
United States
Destination: KBFI Boeing Field/King Co Intl
United States
More flights between these airports :: More routes between these airports
Route: +EPH EPH8
File this flight plan on PilotEdge
Remarks:
Altitude:
(Current/Filed)
16,000ft
Speed:
(Current/Filed)
200kts
Departed: 14-Apr-18 02:36 PM
Arrived: 14-Apr-18 03:53 PM
Distance/Time
Traveled:
193nm/1:17
Distance/Time
To Go:
Arrived

Flight Plot

Page will automatically refresh every two minutes.

Flight plan parsing failed; only flown route is shown


Map Options




Map Legend


Flown Route
Filed Route
Departure Airport
Arrival Airport
Navaid (VOR, NDB)
Fix

Horizontal Profiles

Position Reports

Time Latitude Longitude Heading Altitude Ground
Speed
14-Apr-18 14:13 47.629495 -117.527429 134 2360ft 0kts
14-Apr-18 14:14 47.629495 -117.527429 134 2360ft 0kts
14-Apr-18 14:15 47.629495 -117.527429 134 2360ft 0kts
14-Apr-18 14:16 47.629495 -117.527429 134 2360ft 0kts
14-Apr-18 14:17 47.629495 -117.527429 134 2360ft 0kts
14-Apr-18 14:18 47.629495 -117.527429 134 2360ft 0kts
14-Apr-18 14:19 47.629495 -117.527429 134 2360ft 0kts
14-Apr-18 14:20 47.629495 -117.527429 134 2360ft 0kts
14-Apr-18 14:21 47.629495 -117.527429 134 2360ft 0kts
14-Apr-18 14:22 47.629495 -117.527429 134 2360ft 0kts
14-Apr-18 14:23 47.629495 -117.527429 134 2360ft 0kts
14-Apr-18 14:24 47.629495 -117.527429 134 2360ft 0kts
14-Apr-18 14:25 47.629495 -117.527429 134 2360ft 0kts
14-Apr-18 14:26 47.629495 -117.527429 134 2360ft 0kts
14-Apr-18 14:27 47.629494 -117.527428 134 2360ft 0kts
14-Apr-18 14:28 47.629493 -117.527427 134 2360ft 0kts
14-Apr-18 14:29 47.628827 -117.527336 227 2360ft 9kts
14-Apr-18 14:30 47.628802 -117.525966 45 2360ft 8kts
14-Apr-18 14:31 47.631534 -117.521870 45 2360ft 6kts
14-Apr-18 14:32 47.631908 -117.519283 134 2360ft 5kts
14-Apr-18 14:33 47.631883 -117.519247 134 2360ft 0kts
14-Apr-18 14:34 47.630940 -117.518633 231 2360ft 5kts
14-Apr-18 14:35 47.620358 -117.534717 224 2476ft 116kts
14-Apr-18 14:36 47.596614 -117.567744 221 3772ft 131kts
14-Apr-18 14:37 47.567431 -117.608060 229 4891ft 144kts
14-Apr-18 14:38 47.564605 -117.668688 270 6047ft 157kts
14-Apr-18 14:39 47.574479 -117.730832 276 7251ft 158kts
14-Apr-18 14:40 47.571698 -117.793521 242 8196ft 155kts
14-Apr-18 14:41 47.537877 -117.833708 213 8912ft 159kts
14-Apr-18 14:42 47.522502 -117.892600 269 9970ft 156kts
14-Apr-18 14:43 47.529875 -117.958177 270 10923ft 158kts
14-Apr-18 14:44 47.528945 -118.021351 278 11895ft 152kts
14-Apr-18 14:45 47.530417 -118.084439 256 12629ft 158kts
14-Apr-18 14:46 47.518991 -118.146165 251 13371ft 160kts
14-Apr-18 14:47 47.502599 -118.205098 251 14220ft 152kts
14-Apr-18 14:48 47.495350 -118.262414 262 15298ft 146kts
14-Apr-18 14:49 47.496620 -118.325887 276 15812ft 168kts
14-Apr-18 14:50 47.503005 -118.397138 275 15984ft 185kts
14-Apr-18 14:51 47.520921 -118.471599 276 15720ft 182kts
14-Apr-18 14:52 47.530181 -118.546057 274 14764ft 200kts
14-Apr-18 14:53 47.530571 -118.627667 266 14999ft 196kts
14-Apr-18 14:54 47.528187 -118.707470 261 15342ft 190kts
14-Apr-18 14:55 47.521721 -118.785240 260 15749ft 190kts
14-Apr-18 14:56 47.513037 -118.862248 255 16018ft 188kts
14-Apr-18 14:57 47.496142 -118.938283 248 15978ft 197kts
14-Apr-18 14:58 47.475373 -119.013798 248 15902ft 199kts
14-Apr-18 14:59 47.450149 -119.086528 241 15911ft 199kts
14-Apr-18 15:00 47.427621 -119.160103 252 16013ft 195kts
14-Apr-18 15:01 47.413981 -119.238587 258 15963ft 198kts
14-Apr-18 15:02 47.404672 -119.319647 256 15948ft 199kts
14-Apr-18 15:03 47.391442 -119.398896 254 15955ft 199kts
14-Apr-18 15:04 47.393976 -119.478541 286 15898ft 209kts
14-Apr-18 15:05 47.409736 -119.558768 274 15978ft 201kts
14-Apr-18 15:06 47.419906 -119.640747 276 15955ft 203kts
14-Apr-18 15:07 47.432160 -119.722199 279 15940ft 204kts
14-Apr-18 15:08 47.454544 -119.800731 290 15881ft 212kts
14-Apr-18 15:09 47.478876 -119.879145 284 15922ft 206kts
14-Apr-18 15:10 47.495657 -119.958852 279 15992ft 201kts
14-Apr-18 15:11 47.510227 -120.038479 277 16038ft 199kts
14-Apr-18 15:12 47.521969 -120.119181 276 15970ft 202kts
14-Apr-18 15:13 47.533591 -120.200505 276 15966ft 202kts
14-Apr-18 15:14 47.545613 -120.281936 277 15974ft 202kts
14-Apr-18 15:15 47.559390 -120.362645 278 15965ft 202kts
14-Apr-18 15:16 47.574779 -120.443035 281 15977ft 203kts
14-Apr-18 15:17 47.592721 -120.522798 282 15969ft 204kts
14-Apr-18 15:18 47.614218 -120.601131 286 15986ft 206kts
14-Apr-18 15:19 47.637048 -120.679091 286 15977ft 206kts
14-Apr-18 15:20 47.659888 -120.757039 286 15977ft 206kts
14-Apr-18 15:21 47.680759 -120.835639 282 15999ft 203kts
14-Apr-18 15:22 47.697824 -120.915750 278 16013ft 201kts
14-Apr-18 15:23 47.711432 -120.996427 275 16028ft 200kts
14-Apr-18 15:24 47.719071 -121.077964 272 16019ft 200kts
14-Apr-18 15:25 47.726043 -121.159926 270 16031ft 199kts
14-Apr-18 15:26 47.731391 -121.241787 270 16031ft 199kts
14-Apr-18 15:27 47.738728 -121.323753 273 16058ft 199kts
14-Apr-18 15:28 47.751924 -121.404147 278 16072ft 201kts
14-Apr-18 15:29 47.769735 -121.483760 282 16043ft 205kts
14-Apr-18 15:30 47.790615 -121.563542 284 16013ft 207kts
14-Apr-18 15:31 47.812289 -121.642656 284 16036ft 206kts
14-Apr-18 15:32 47.829320 -121.722957 277 15968ft 204kts
14-Apr-18 15:33 47.818751 -121.797305 220 15583ft 205kts
14-Apr-18 15:34 47.768873 -121.846074 217 14492ft 236kts
14-Apr-18 15:35 47.715933 -121.904209 223 13630ft 237kts
14-Apr-18 15:36 47.674971 -121.975338 261 13028ft 222kts
14-Apr-18 15:37 47.682897 -122.072350 274 11587ft 241kts
14-Apr-18 15:38 47.693726 -122.171189 274 10249ft 241kts
14-Apr-18 15:39 47.714760 -122.263283 315 9134ft 251kts
14-Apr-18 15:40 47.781690 -122.308307 333 7468ft 270kts
14-Apr-18 15:41 47.845971 -122.358169 300 6262ft 243kts
14-Apr-18 15:42 47.839455 -122.443053 233 5114ft 211kts
14-Apr-18 15:43 47.793655 -122.474866 181 4686ft 178kts
14-Apr-18 15:44 47.747627 -122.480706 175 4242ft 171kts
14-Apr-18 15:45 47.710350 -122.450567 169 3992ft 149kts
14-Apr-18 15:46 47.679502 -122.427225 138 2773ft 110kts
14-Apr-18 15:47 47.653010 -122.411117 173 2558ft 102kts
14-Apr-18 15:48 47.630509 -122.383141 156 1955ft 113kts
14-Apr-18 15:49 47.602469 -122.364064 143 1476ft 116kts
14-Apr-18 15:50 47.575148 -122.340412 153 814ft 114kts
14-Apr-18 15:51 47.547600 -122.317367 149 216ft 100kts
14-Apr-18 15:52 47.529040 -122.301692 149 28ft 27kts
14-Apr-18 15:53 47.521564 -122.295356 152 28ft 32kts
14-Apr-18 15:54 47.518434 -122.294573 312 28ft 6kts
14-Apr-18 15:55 47.518967 -122.295790 118 28ft 3kts
14-Apr-18 15:56 47.518964 -122.295781 119 28ft 0kts
14-Apr-18 15:57 47.518964 -122.295781 119 28ft 0kts
14-Apr-18 15:58 47.518964 -122.295781 119 28ft 0kts

Navigation Log

Ident Type
Flight plan parsing failed, navigation log unavailable